Time;durP1;ratioP1;P1;durP2;ratioP2;P2;SDS_P1;SDS_P2;PMS_P1;PMS_P2;Temp;Humidity;BMP_temperature;BMP_pressure;BME280_temperature;BME280_humidity;BME280_pressure;Samples;Min_cycle;Max_cycle;Signal;HPM_P1;HPM_P2
2022/06/26 19:52:36;;;;;;;5.72;3.50;;;;;;;25.67;44.39;98992.16;5165363;27;20125;-72
2022/06/26 19:55:04;;;;;;;4.88;3.40;;;;;;;25.70;44.29;98994.47;5163943;27;20051;-72
2022/06/26 19:57:31;;;;;;;8.00;4.03;;;;;;;25.77;43.97;98994.56;5164045;27;20085;-73
2022/06/26 19:59:59;;;;;;;3.78;2.92;;;;;;;25.80;43.96;98986.88;5164247;27;20055;-73
2022/06/26 20:02:26;;;;;;;4.22;3.10;;;;;;;25.85;44.42;98991.75;5164402;27;20055;-74
2022/06/26 20:04:54;;;;;;;4.50;3.58;;;;;;;25.76;44.55;98968.47;5164346;27;20055;-73
2022/06/26 20:07:21;;;;;;;5.13;3.60;;;;;;;25.95;43.69;98992.28;5164427;27;20047;-74
2022/06/26 20:09:50;;;;;;;5.07;3.67;;;;;;;25.99;43.62;99001.75;5163985;27;20298;-74
2022/06/26 20:12:17;;;;;;;4.30;3.40;;;;;;;25.97;43.74;98998.38;5164264;27;20058;-73
2022/06/26 20:14:45;;;;;;;4.88;3.92;;;;;;;25.99;44.12;98998.19;5164206;27;20054;-74
2022/06/26 20:17:12;;;;;;;4.70;3.80;;;;;;;26.01;44.33;99001.56;5164058;27;20055;-74
2022/06/26 20:19:40;;;;;;;65.82;11.40;;;;;;;26.01;45.81;98988.81;5164107;27;20054;-74
2022/06/26 20:22:07;;;;;;;8.60;4.45;;;;;;;25.96;45.91;98979.53;5163741;27;20062;-75
2022/06/26 20:24:35;;;;;;;6.35;4.63;;;;;;;26.03;46.10;98994.06;5164015;27;20061;-75
2022/06/26 20:27:04;;;;;;;5.30;4.80;;;;;;;26.04;45.68;98991.16;5163413;27;20051;-75
2022/06/26 20:29:32;;;;;;;6.47;5.15;;;;;;;25.94;45.83;98992.47;5163939;27;20055;-74
2022/06/26 20:32:00;;;;;;;7.50;6.78;;;;;;;25.97;45.59;98992.06;5163116;27;20050;-74
2022/06/26 20:34:27;;;;;;;9.98;8.93;;;;;;;25.95;45.95;98988.72;5163732;27;20306;-75
2022/06/26 20:36:55;;;;;;;13.20;11.88;;;;;;;25.95;46.10;98992.28;5164176;27;20054;-74
2022/06/26 20:39:23;;;;;;;14.27;12.80;;;;;;;25.91;45.73;98994.53;5163461;27;20333;-74
2022/06/26 20:41:50;;;;;;;16.17;14.48;;;;;;;25.94;46.32;98992.47;5163349;27;20062;-74
2022/06/26 20:44:19;;;;;;;17.58;15.70;;;;;;;25.90;45.23;98990.13;5163502;27;20050;-74
2022/06/26 20:46:46;;;;;;;17.15;15.45;;;;;;;25.80;45.26;98981.47;5163658;27;20039;-75
2022/06/26 20:49:14;;;;;;;20.05;17.83;;;;;;;25.91;45.27;99001.84;5162970;27;20055;-74
2022/06/26 20:51:43;;;;;;;20.08;18.05;;;;;;;25.90;45.57;99001.00;5162939;27;20069;-74
2022/06/26 20:54:10;;;;;;;18.63;16.73;;;;;;;25.81;45.75;98998.59;5162859;27;20073;-74
2022/06/26 20:56:38;;;;;;;22.95;20.63;;;;;;;25.71;46.00;98993.44;5161716;27;20066;-74
2022/06/26 20:59:06;;;;;;;16.83;15.23;;;;;;;25.75;46.22;99010.19;5161551;27;20078;-74
2022/06/26 21:01:35;;;;;;;16.73;15.02;;;;;;;25.77;46.03;99000.00;5161482;27;20230;-75
2022/06/26 21:04:03;;;;;;;15.85;13.68;;;;;;;25.72;46.40;99006.00;5146978;27;20077;-74
2022/06/26 21:06:31;;;;;;;16.88;15.13;;;;;;;25.45;46.95;98963.28;5147672;27;20055;-75
2022/06/26 21:08:58;;;;;;;17.83;15.93;;;;;;;25.72;46.87;99006.00;5148358;27;20052;-74
2022/06/26 21:11:26;;;;;;;18.33;16.52;;;;;;;23.87;47.05;98709.78;5148545;27;20051;-75
2022/06/26 21:13:56;;;;;;;18.10;16.33;;;;;;;25.65;47.36;99010.50;5148149;27;20062;-74
2022/06/26 21:16:24;;;;;;;17.10;15.50;;;;;;;25.67;47.17;99010.31;5148462;27;20062;-74
2022/06/26 21:18:53;;;;;;;22.95;16.95;;;;;;;25.67;47.12;99011.16;5148237;27;20058;-74
2022/06/26 21:21:20;;;;;;;15.88;14.30;;;;;;;25.59;47.16;99011.25;5148442;27;20058;-75
2022/06/26 21:23:48;;;;;;;16.80;15.00;;;;;;;25.59;47.08;99016.69;5148240;27;20066;-75
2022/06/26 21:26:16;;;;;;;16.42;14.82;;;;;;;25.57;47.29;99013.31;5148697;27;20055;-74
2022/06/26 21:28:44;;;;;;;17.02;15.23;;;;;;;25.46;47.48;98997.50;5148544;27;20055;-75
2022/06/26 21:31:12;;;;;;;15.90;14.30;;;;;;;25.54;47.46;99019.13;5148314;27;20047;-75
2022/06/26 21:33:40;;;;;;;13.90;11.63;;;;;;;25.13;47.25;98962.63;5148630;27;20062;-74
2022/06/26 21:36:09;;;;;;;15.45;12.82;;;;;;;25.38;47.41;98992.19;5148729;27;20210;-74
2022/06/26 21:38:37;;;;;;;14.18;12.77;;;;;;;25.40;47.53;99018.09;5148396;27;20051;-75
2022/06/26 21:41:06;;;;;;;16.38;13.50;;;;;;;25.44;47.68;99018.56;5148552;27;20065;-75
2022/06/26 21:43:34;;;;;;;12.77;11.40;;;;;;;25.39;47.68;99015.56;5148494;27;20047;-76
2022/06/26 21:46:01;;;;;;;11.85;10.05;;;;;;;25.37;47.70;99009.50;5148741;27;20055;-74
2022/06/26 21:48:29;;;;;;;13.38;12.02;;;;;;;25.32;48.12;99010.06;5148463;27;20101;-74
2022/06/26 21:50:57;;;;;;;16.60;14.90;;;;;;;25.31;48.06;99013.75;5147987;27;20062;-74
2022/06/26 21:53:27;;;;;;;18.15;16.25;;;;;;;24.96;47.88;98955.66;5147973;27;20055;-74
2022/06/26 21:55:54;;;;;;;22.98;20.73;;;;;;;25.26;48.24;99010.78;5148153;27;20051;-74
2022/06/26 21:58:21;;;;;;;20.35;18.30;;;;;;;25.27;48.40;99013.28;5148283;27;20062;-74
2022/06/26 22:00:52;;;;;;;16.80;15.10;;;;;;;25.25;48.48;99011.78;5148404;27;20055;-74
2022/06/26 22:03:21;;;;;;;21.15;18.95;;;;;;;25.20;48.71;99014.22;5147694;27;20051;-73
2022/06/26 22:05:48;;;;;;;14.55;13.15;;;;;;;25.21;48.78;99014.03;5148203;27;20070;-73
2022/06/26 22:08:15;;;;;;;13.07;11.80;;;;;;;25.16;48.86;99011.03;5148164;27;20055;-74
2022/06/26 22:10:44;;;;;;;16.33;14.63;;;;;;;25.11;49.00;99012.63;5147925;27;20055;-74
2022/06/26 22:13:12;;;;;;;14.73;13.23;;;;;;;25.12;49.03;99011.59;5147840;27;20081;-74
2022/06/26 22:15:40;;;;;;;11.70;10.60;;;;;;;24.82;48.98;98965.47;5146902;27;20318;-73
2022/06/26 22:18:07;;;;;;;11.55;10.45;;;;;;;25.13;48.66;99016.00;5148030;27;20058;-74
2022/06/26 22:20:35;;;;;;;14.23;10.77;;;;;;;25.14;48.87;99007.69;5147767;27;20315;-74
2022/06/26 22:23:02;;;;;;;13.77;12.35;;;;;;;25.01;48.96;99012.91;5147835;27;20051;-74
2022/06/26 22:25:31;;;;;;;15.98;14.35;;;;;;;25.02;48.66;99011.88;5147504;27;20062;-73
2022/06/26 22:28:19;;;;;;;13.98;12.45;;;;;;;24.96;48.82;99005.28;5147422;27;20055;-74
2022/06/26 22:30:46;;;;;;;11.38;10.27;;;;;;;25.01;48.85;99012.06;5147624;27;20055;-73
2022/06/26 22:33:13;;;;;;;12.43;10.90;;;;;;;24.84;48.81;99014.06;5147683;27;20051;-74
2022/06/26 22:35:41;;;;;;;20.33;17.95;;;;;;;24.86;49.11;99007.44;5147365;27;20065;-74
2022/06/26 22:38:08;;;;;;;19.77;17.17;;;;;;;24.86;48.91;99010.13;5147126;27;20054;-74
2022/06/26 22:40:36;;;;;;;14.18;12.77;;;;;;;24.86;48.99;99010.13;5147536;27;20352;-74
2022/06/26 22:43:04;;;;;;;16.60;14.95;;;;;;;24.83;49.04;99006.97;5147510;27;20062;-74
2022/06/26 22:45:32;;;;;;;17.48;15.68;;;;;;;24.70;49.18;98982.34;5147261;27;20051;-74
2022/06/26 22:48:00;;;;;;;19.95;16.65;;;;;;;24.80;49.08;98996.47;5147243;27;20062;-75
2022/06/26 22:50:27;;;;;;;11.75;10.55;;;;;;;24.72;49.36;98997.41;5147254;27;20066;-74
2022/06/26 22:52:54;;;;;;;8.68;7.72;;;;;;;24.67;49.43;98997.09;5147054;27;20058;-73
2022/06/26 22:55:22;;;;;;;9.40;6.75;;;;;;;24.57;49.47;98991.91;5147013;27;20055;-73
2022/06/26 22:57:50;;;;;;;8.23;7.22;;;;;;;24.66;49.68;98991.88;5146925;27;20062;-74
2022/06/26 23:00:18;;;;;;;8.10;7.30;;;;;;;24.64;49.64;98986.59;5147164;27;20342;-73
2022/06/26 23:02:48;;;;;;;12.38;11.18;;;;;;;24.25;49.56;98929.91;5147328;27;20051;-73
2022/06/26 23:05:19;;;;;;;14.88;13.02;;;;;;;24.60;49.72;98991.53;5147288;27;20054;-73
2022/06/26 23:07:46;;;;;;;16.42;12.80;;;;;;;24.27;49.62;98955.78;5147338;27;20062;-74
2022/06/26 23:10:14;;;;;;;11.88;10.57;;;;;;;24.52;49.72;99002.47;5147194;27;20051;-73
2022/06/26 23:12:41;;;;;;;10.88;9.75;;;;;;;24.37;50.04;98987.19;5147002;27;20051;-73
2022/06/26 23:15:09;;;;;;;9.65;8.68;;;;;;;24.45;49.93;98987.94;5147040;27;20070;-73
2022/06/26 23:17:37;;;;;;;9.15;8.25;;;;;;;24.43;50.03;98981.88;5147073;27;20192;-73
2022/06/26 23:20:08;;;;;;;7.13;6.43;;;;;;;24.02;50.06;98921.78;5146982;27;20066;-74
2022/06/26 23:22:35;;;;;;;7.20;6.20;;;;;;;24.41;50.40;98980.38;5146063;27;20188;-73
2022/06/26 23:25:03;;;;;;;8.68;5.90;;;;;;;24.49;49.97;98985.72;5146702;27;20062;-74
2022/06/26 23:27:31;;;;;;;7.07;5.82;;;;;;;24.42;50.04;98984.78;5146444;27;20062;-74
